sensor_id;sensor_type;location;lat;lon;timestamp;P1;durP1;ratioP1;P2;durP2;ratioP2
61527;SDS011;47395;42.032;-8.634;2023-05-29T00:01:51;31.85;;;19.92;;
61527;SDS011;47395;42.032;-8.634;2023-05-29T00:06:35;28.65;;;20.60;;
61527;SDS011;47395;42.032;-8.634;2023-05-29T00:08:36;30.23;;;20.42;;
61527;SDS011;47395;42.032;-8.634;2023-05-29T00:10:37;30.83;;;19.63;;
61527;SDS011;47395;42.032;-8.634;2023-05-29T00:13:24;32.33;;;19.45;;
61527;SDS011;47395;42.032;-8.634;2023-05-29T00:15:25;30.23;;;17.95;;
61527;SDS011;47395;42.032;-8.634;2023-05-29T00:17:26;27.35;;;18.50;;
61527;SDS011;47395;42.032;-8.634;2023-05-29T00:22:09;31.83;;;18.88;;
61527;SDS011;47395;42.032;-8.634;2023-05-29T00:24:10;24.17;;;16.92;;
61527;SDS011;47395;42.032;-8.634;2023-05-29T00:26:11;26.35;;;17.15;;
61527;SDS011;47395;42.032;-8.634;2023-05-29T00:28:15;29.33;;;18.25;;
61527;SDS011;47395;42.032;-8.634;2023-05-29T00:30:58;27.48;;;17.80;;
61527;SDS011;47395;42.032;-8.634;2023-05-29T00:32:59;29.73;;;17.50;;
61527;SDS011;47395;42.032;-8.634;2023-05-29T00:34:59;27.15;;;17.80;;
61527;SDS011;47395;42.032;-8.634;2023-05-29T00:37:00;21.63;;;15.98;;
61527;SDS011;47395;42.032;-8.634;2023-05-29T00:39:01;23.35;;;16.73;;
61527;SDS011;47395;42.032;-8.634;2023-05-29T00:41:03;24.13;;;15.23;;
61527;SDS011;47395;42.032;-8.634;2023-05-29T00:43:04;25.05;;;16.63;;
61527;SDS011;47395;42.032;-8.634;2023-05-29T00:45:05;24.23;;;17.35;;
61527;SDS011;47395;42.032;-8.634;2023-05-29T00:47:06;24.70;;;16.10;;
61527;SDS011;47395;42.032;-8.634;2023-05-29T00:49:07;22.08;;;16.08;;
61527;SDS011;47395;42.032;-8.634;2023-05-29T00:51:09;23.80;;;16.20;;
61527;SDS011;47395;42.032;-8.634;2023-05-29T00:53:11;26.50;;;16.75;;
61527;SDS011;47395;42.032;-8.634;2023-05-29T00:55:13;21.20;;;15.73;;
61527;SDS011;47395;42.032;-8.634;2023-05-29T00:57:14;23.98;;;15.88;;
61527;SDS011;47395;42.032;-8.634;2023-05-29T00:59:17;28.33;;;16.27;;
61527;SDS011;47395;42.032;-8.634;2023-05-29T01:01:21;20.85;;;15.50;;
61527;SDS011;47395;42.032;-8.634;2023-05-29T01:03:22;25.30;;;15.20;;
61527;SDS011;47395;42.032;-8.634;2023-05-29T01:11:49;21.65;;;14.63;;
61527;SDS011;47395;42.032;-8.634;2023-05-29T01:17:04;20.85;;;14.73;;
61527;SDS011;47395;42.032;-8.634;2023-05-29T01:20:25;25.25;;;15.25;;
61527;SDS011;47395;42.032;-8.634;2023-05-29T01:22:34;25.88;;;16.15;;
61527;SDS011;47395;42.032;-8.634;2023-05-29T01:24:58;21.48;;;14.73;;
61527;SDS011;47395;42.032;-8.634;2023-05-29T01:27:19;20.70;;;15.07;;
61527;SDS011;47395;42.032;-8.634;2023-05-29T01:29:26;22.95;;;14.35;;
61527;SDS011;47395;42.032;-8.634;2023-05-29T01:31:30;20.33;;;14.63;;
61527;SDS011;47395;42.032;-8.634;2023-05-29T01:33:33;21.58;;;15.80;;
61527;SDS011;47395;42.032;-8.634;2023-05-29T01:35:33;20.75;;;15.18;;
61527;SDS011;47395;42.032;-8.634;2023-05-29T01:37:34;22.83;;;15.13;;
61527;SDS011;47395;42.032;-8.634;2023-05-29T01:39:35;23.05;;;14.52;;
61527;SDS011;47395;42.032;-8.634;2023-05-29T01:41:36;25.67;;;16.20;;
61527;SDS011;47395;42.032;-8.634;2023-05-29T01:43:40;25.05;;;15.93;;
61527;SDS011;47395;42.032;-8.634;2023-05-29T01:46:01;24.30;;;15.45;;
61527;SDS011;47395;42.032;-8.634;2023-05-29T01:48:02;25.15;;;17.15;;
61527;SDS011;47395;42.032;-8.634;2023-05-29T01:50:04;23.38;;;15.65;;
61527;SDS011;47395;42.032;-8.634;2023-05-29T01:52:06;23.58;;;15.85;;
61527;SDS011;47395;42.032;-8.634;2023-05-29T01:54:06;23.92;;;15.23;;
61527;SDS011;47395;42.032;-8.634;2023-05-29T01:56:08;21.63;;;15.70;;
61527;SDS011;47395;42.032;-8.634;2023-05-29T01:58:11;24.55;;;15.75;;
61527;SDS011;47395;42.032;-8.634;2023-05-29T02:00:13;25.92;;;15.95;;
61527;SDS011;47395;42.032;-8.634;2023-05-29T02:02:17;24.90;;;16.48;;
61527;SDS011;47395;42.032;-8.634;2023-05-29T02:04:18;22.98;;;16.60;;
61527;SDS011;47395;42.032;-8.634;2023-05-29T02:09:07;22.58;;;16.15;;
61527;SDS011;47395;42.032;-8.634;2023-05-29T02:11:07;24.88;;;16.30;;
61527;SDS011;47395;42.032;-8.634;2023-05-29T02:13:08;27.15;;;15.77;;
61527;SDS011;47395;42.032;-8.634;2023-05-29T02:15:09;22.35;;;15.68;;
61527;SDS011;47395;42.032;-8.634;2023-05-29T02:17:11;20.38;;;15.40;;
61527;SDS011;47395;42.032;-8.634;2023-05-29T02:19:12;21.90;;;15.73;;
61527;SDS011;47395;42.032;-8.634;2023-05-29T02:21:12;25.38;;;15.60;;
61527;SDS011;47395;42.032;-8.634;2023-05-29T02:23:13;19.30;;;14.95;;
61527;SDS011;47395;42.032;-8.634;2023-05-29T02:25:15;22.00;;;14.95;;
61527;SDS011;47395;42.032;-8.634;2023-05-29T02:27:31;20.05;;;14.50;;
61527;SDS011;47395;42.032;-8.634;2023-05-29T02:29:32;20.92;;;14.57;;
61527;SDS011;47395;42.032;-8.634;2023-05-29T02:31:33;21.42;;;16.52;;
61527;SDS011;47395;42.032;-8.634;2023-05-29T02:33:33;29.55;;;17.50;;
61527;SDS011;47395;42.032;-8.634;2023-05-29T02:36:06;23.25;;;16.13;;
61527;SDS011;47395;42.032;-8.634;2023-05-29T02:38:16;26.15;;;16.45;;
61527;SDS011;47395;42.032;-8.634;2023-05-29T02:40:17;21.63;;;15.90;;
61527;SDS011;47395;42.032;-8.634;2023-05-29T02:42:18;22.20;;;15.55;;
61527;SDS011;47395;42.032;-8.634;2023-05-29T02:44:19;28.42;;;17.08;;
61527;SDS011;47395;42.032;-8.634;2023-05-29T02:46:20;25.70;;;16.55;;
61527;SDS011;47395;42.032;-8.634;2023-05-29T02:48:23;27.55;;;18.25;;
61527;SDS011;47395;42.032;-8.634;2023-05-29T02:50:26;27.85;;;18.40;;
61527;SDS011;47395;42.032;-8.634;2023-05-29T02:52:45;23.05;;;17.02;;
61527;SDS011;47395;42.032;-8.634;2023-05-29T02:54:46;28.27;;;17.25;;
61527;SDS011;47395;42.032;-8.634;2023-05-29T02:56:47;30.33;;;17.38;;
61527;SDS011;47395;42.032;-8.634;2023-05-29T02:58:47;27.17;;;16.27;;
61527;SDS011;47395;42.032;-8.634;2023-05-29T03:00:48;21.98;;;16.05;;
61527;SDS011;47395;42.032;-8.634;2023-05-29T03:05:46;23.83;;;17.02;;
61527;SDS011;47395;42.032;-8.634;2023-05-29T03:07:47;28.23;;;17.98;;
61527;SDS011;47395;42.032;-8.634;2023-05-29T03:09:48;25.60;;;17.42;;
61527;SDS011;47395;42.032;-8.634;2023-05-29T03:11:49;24.52;;;17.40;;
61527;SDS011;47395;42.032;-8.634;2023-05-29T03:13:53;28.60;;;17.17;;
61527;SDS011;47395;42.032;-8.634;2023-05-29T03:15:53;26.27;;;16.70;;
61527;SDS011;47395;42.032;-8.634;2023-05-29T03:18:38;24.05;;;16.48;;
61527;SDS011;47395;42.032;-8.634;2023-05-29T03:20:40;30.13;;;17.40;;
61527;SDS011;47395;42.032;-8.634;2023-05-29T03:22:41;23.15;;;16.33;;
61527;SDS011;47395;42.032;-8.634;2023-05-29T03:24:42;26.20;;;16.80;;
61527;SDS011;47395;42.032;-8.634;2023-05-29T03:26:43;22.02;;;15.52;;
61527;SDS011;47395;42.032;-8.634;2023-05-29T03:28:44;24.83;;;16.95;;
61527;SDS011;47395;42.032;-8.634;2023-05-29T03:30:45;31.60;;;17.92;;
61527;SDS011;47395;42.032;-8.634;2023-05-29T03:32:48;27.05;;;17.15;;
61527;SDS011;47395;42.032;-8.634;2023-05-29T03:36:07;26.02;;;17.65;;
61527;SDS011;47395;42.032;-8.634;2023-05-29T03:38:08;21.40;;;16.58;;
61527;SDS011;47395;42.032;-8.634;2023-05-29T03:40:18;26.42;;;17.08;;
61527;SDS011;47395;42.032;-8.634;2023-05-29T03:42:20;30.00;;;17.73;;
61527;SDS011;47395;42.032;-8.634;2023-05-29T03:44:23;24.50;;;17.65;;
61527;SDS011;47395;42.032;-8.634;2023-05-29T03:48:47;28.48;;;18.55;;
61527;SDS011;47395;42.032;-8.634;2023-05-29T03:50:48;26.80;;;18.77;;
61527;SDS011;47395;42.032;-8.634;2023-05-29T03:53:04;24.48;;;17.33;;
61527;SDS011;47395;42.032;-8.634;2023-05-29T03:55:43;25.95;;;17.67;;
61527;SDS011;47395;42.032;-8.634;2023-05-29T03:57:44;25.65;;;16.88;;
61527;SDS011;47395;42.032;-8.634;2023-05-29T03:59:47;24.00;;;16.55;;
61527;SDS011;47395;42.032;-8.634;2023-05-29T04:04:11;26.80;;;17.90;;
61527;SDS011;47395;42.032;-8.634;2023-05-29T04:06:12;26.40;;;17.17;;
61527;SDS011;47395;42.032;-8.634;2023-05-29T04:08:13;32.20;;;18.63;;
61527;SDS011;47395;42.032;-8.634;2023-05-29T04:10:14;27.20;;;18.80;;
61527;SDS011;47395;42.032;-8.634;2023-05-29T04:12:15;30.00;;;18.88;;
61527;SDS011;47395;42.032;-8.634;2023-05-29T04:14:17;26.20;;;18.65;;
61527;SDS011;47395;42.032;-8.634;2023-05-29T04:19:06;28.50;;;18.77;;
61527;SDS011;47395;42.032;-8.634;2023-05-29T04:21:41;30.88;;;19.40;;
61527;SDS011;47395;42.032;-8.634;2023-05-29T04:23:42;31.00;;;19.35;;
61527;SDS011;47395;42.032;-8.634;2023-05-29T04:25:44;33.00;;;18.90;;
61527;SDS011;47395;42.032;-8.634;2023-05-29T04:27:46;27.88;;;17.88;;
61527;SDS011;47395;42.032;-8.634;2023-05-29T04:29:52;28.48;;;18.38;;
61527;SDS011;47395;42.032;-8.634;2023-05-29T04:32:21;31.00;;;18.77;;
61527;SDS011;47395;42.032;-8.634;2023-05-29T04:34:53;29.50;;;19.10;;
61527;SDS011;47395;42.032;-8.634;2023-05-29T04:36:54;30.33;;;18.40;;
61527;SDS011;47395;42.032;-8.634;2023-05-29T04:38:56;33.30;;;19.25;;
61527;SDS011;47395;42.032;-8.634;2023-05-29T04:40:57;26.65;;;18.95;;
61527;SDS011;47395;42.032;-8.634;2023-05-29T04:42:59;29.20;;;18.85;;
61527;SDS011;47395;42.032;-8.634;2023-05-29T04:45:04;31.42;;;19.45;;
61527;SDS011;47395;42.032;-8.634;2023-05-29T04:47:09;30.38;;;19.00;;
61527;SDS011;47395;42.032;-8.634;2023-05-29T04:49:11;28.05;;;16.98;;
61527;SDS011;47395;42.032;-8.634;2023-05-29T04:51:13;30.67;;;16.95;;
61527;SDS011;47395;42.032;-8.634;2023-05-29T04:53:14;25.67;;;17.00;;
61527;SDS011;47395;42.032;-8.634;2023-05-29T04:55:15;24.23;;;16.63;;
61527;SDS011;47395;42.032;-8.634;2023-05-29T04:57:17;25.48;;;18.15;;
61527;SDS011;47395;42.032;-8.634;2023-05-29T04:59:18;25.08;;;17.23;;
61527;SDS011;47395;42.032;-8.634;2023-05-29T05:01:30;24.65;;;17.25;;
61527;SDS011;47395;42.032;-8.634;2023-05-29T05:03:50;22.40;;;16.10;;
61527;SDS011;47395;42.032;-8.634;2023-05-29T05:06:55;25.05;;;16.17;;
61527;SDS011;47395;42.032;-8.634;2023-05-29T05:12:49;23.55;;;15.43;;
61527;SDS011;47395;42.032;-8.634;2023-05-29T05:15:29;23.17;;;15.70;;
61527;SDS011;47395;42.032;-8.634;2023-05-29T05:17:30;25.40;;;15.57;;
61527;SDS011;47395;42.032;-8.634;2023-05-29T05:19:43;22.40;;;16.77;;
61527;SDS011;47395;42.032;-8.634;2023-05-29T05:22:33;19.60;;;15.57;;
61527;SDS011;47395;42.032;-8.634;2023-05-29T05:24:33;23.00;;;15.05;;
61527;SDS011;47395;42.032;-8.634;2023-05-29T05:26:36;23.15;;;15.05;;
61527;SDS011;47395;42.032;-8.634;2023-05-29T05:28:38;22.27;;;16.23;;
61527;SDS011;47395;42.032;-8.634;2023-05-29T05:30:39;23.35;;;14.95;;
61527;SDS011;47395;42.032;-8.634;2023-05-29T05:32:40;26.35;;;17.42;;
61527;SDS011;47395;42.032;-8.634;2023-05-29T05:34:40;20.52;;;15.45;;
61527;SDS011;47395;42.032;-8.634;2023-05-29T05:36:42;22.23;;;16.08;;
61527;SDS011;47395;42.032;-8.634;2023-05-29T05:41:17;24.35;;;15.30;;
61527;SDS011;47395;42.032;-8.634;2023-05-29T05:43:19;19.55;;;15.13;;
61527;SDS011;47395;42.032;-8.634;2023-05-29T05:45:47;23.30;;;15.82;;
61527;SDS011;47395;42.032;-8.634;2023-05-29T05:47:49;27.02;;;15.77;;
61527;SDS011;47395;42.032;-8.634;2023-05-29T05:50:48;22.58;;;14.82;;
61527;SDS011;47395;42.032;-8.634;2023-05-29T05:52:49;27.70;;;14.88;;
61527;SDS011;47395;42.032;-8.634;2023-05-29T05:54:50;22.88;;;15.15;;
61527;SDS011;47395;42.032;-8.634;2023-05-29T05:56:51;18.35;;;15.88;;
61527;SDS011;47395;42.032;-8.634;2023-05-29T05:58:53;20.73;;;14.80;;
61527;SDS011;47395;42.032;-8.634;2023-05-29T06:00:54;20.85;;;15.73;;
61527;SDS011;47395;42.032;-8.634;2023-05-29T06:02:55;23.20;;;15.57;;
61527;SDS011;47395;42.032;-8.634;2023-05-29T06:05:35;21.08;;;15.23;;
61527;SDS011;47395;42.032;-8.634;2023-05-29T06:07:38;20.08;;;15.45;;
61527;SDS011;47395;42.032;-8.634;2023-05-29T06:09:38;26.60;;;16.60;;
61527;SDS011;47395;42.032;-8.634;2023-05-29T06:11:40;23.55;;;16.00;;
61527;SDS011;47395;42.032;-8.634;2023-05-29T06:13:41;24.50;;;15.23;;
61527;SDS011;47395;42.032;-8.634;2023-05-29T06:15:46;22.60;;;14.38;;
61527;SDS011;47395;42.032;-8.634;2023-05-29T06:17:48;20.00;;;14.98;;
61527;SDS011;47395;42.032;-8.634;2023-05-29T06:19:51;21.90;;;14.02;;
61527;SDS011;47395;42.032;-8.634;2023-05-29T06:21:51;17.90;;;14.88;;
61527;SDS011;47395;42.032;-8.634;2023-05-29T06:23:52;23.90;;;16.02;;
61527;SDS011;47395;42.032;-8.634;2023-05-29T06:25:54;24.27;;;15.10;;
61527;SDS011;47395;42.032;-8.634;2023-05-29T06:27:55;22.27;;;14.57;;
61527;SDS011;47395;42.032;-8.634;2023-05-29T06:29:56;23.10;;;16.33;;
61527;SDS011;47395;42.032;-8.634;2023-05-29T06:31:57;21.40;;;14.82;;
61527;SDS011;47395;42.032;-8.634;2023-05-29T06:33:57;17.52;;;14.35;;
61527;SDS011;47395;42.032;-8.634;2023-05-29T06:35:58;20.02;;;14.82;;
61527;SDS011;47395;42.032;-8.634;2023-05-29T06:37:59;19.08;;;14.40;;
61527;SDS011;47395;42.032;-8.634;2023-05-29T06:40:01;19.23;;;14.50;;
61527;SDS011;47395;42.032;-8.634;2023-05-29T06:44:33;21.02;;;13.95;;
61527;SDS011;47395;42.032;-8.634;2023-05-29T06:46:34;19.38;;;14.13;;
61527;SDS011;47395;42.032;-8.634;2023-05-29T06:48:35;21.67;;;14.93;;
61527;SDS011;47395;42.032;-8.634;2023-05-29T06:50:36;21.73;;;15.23;;
61527;SDS011;47395;42.032;-8.634;2023-05-29T06:52:50;16.75;;;13.63;;
61527;SDS011;47395;42.032;-8.634;2023-05-29T06:55:01;24.38;;;15.27;;
61527;SDS011;47395;42.032;-8.634;2023-05-29T06:57:03;20.17;;;14.52;;
61527;SDS011;47395;42.032;-8.634;2023-05-29T06:59:04;22.33;;;15.35;;
61527;SDS011;47395;42.032;-8.634;2023-05-29T07:01:05;19.02;;;14.35;;
61527;SDS011;47395;42.032;-8.634;2023-05-29T07:03:07;21.63;;;15.50;;
61527;SDS011;47395;42.032;-8.634;2023-05-29T07:05:08;18.35;;;14.38;;
61527;SDS011;47395;42.032;-8.634;2023-05-29T07:07:11;23.17;;;16.33;;
61527;SDS011;47395;42.032;-8.634;2023-05-29T07:09:12;21.27;;;16.00;;
61527;SDS011;47395;42.032;-8.634;2023-05-29T07:11:12;23.35;;;16.50;;
61527;SDS011;47395;42.032;-8.634;2023-05-29T07:13:14;20.23;;;14.32;;
61527;SDS011;47395;42.032;-8.634;2023-05-29T07:15:16;18.35;;;14.65;;
61527;SDS011;47395;42.032;-8.634;2023-05-29T07:17:17;21.23;;;15.68;;
61527;SDS011;47395;42.032;-8.634;2023-05-29T07:19:18;21.55;;;14.63;;
61527;SDS011;47395;42.032;-8.634;2023-05-29T07:21:19;20.42;;;15.23;;
61527;SDS011;47395;42.032;-8.634;2023-05-29T07:23:20;23.05;;;15.88;;
61527;SDS011;47395;42.032;-8.634;2023-05-29T07:25:21;23.85;;;16.20;;
61527;SDS011;47395;42.032;-8.634;2023-05-29T07:27:22;23.77;;;14.98;;
61527;SDS011;47395;42.032;-8.634;2023-05-29T07:29:23;22.05;;;15.05;;
61527;SDS011;47395;42.032;-8.634;2023-05-29T07:31:24;23.02;;;14.65;;
61527;SDS011;47395;42.032;-8.634;2023-05-29T07:33:26;21.80;;;14.73;;
61527;SDS011;47395;42.032;-8.634;2023-05-29T07:35:29;22.95;;;14.95;;
61527;SDS011;47395;42.032;-8.634;2023-05-29T07:37:33;22.30;;;14.55;;
61527;SDS011;47395;42.032;-8.634;2023-05-29T07:39:35;25.02;;;15.35;;
61527;SDS011;47395;42.032;-8.634;2023-05-29T07:41:44;21.77;;;14.98;;
61527;SDS011;47395;42.032;-8.634;2023-05-29T07:43:45;18.60;;;13.82;;
61527;SDS011;47395;42.032;-8.634;2023-05-29T07:45:52;20.23;;;13.88;;
61527;SDS011;47395;42.032;-8.634;2023-05-29T07:47:54;18.15;;;14.60;;
61527;SDS011;47395;42.032;-8.634;2023-05-29T07:49:56;17.10;;;14.32;;
61527;SDS011;47395;42.032;-8.634;2023-05-29T07:51:59;18.75;;;14.02;;
61527;SDS011;47395;42.032;-8.634;2023-05-29T07:54:00;25.35;;;14.95;;
61527;SDS011;47395;42.032;-8.634;2023-05-29T07:56:02;26.73;;;16.02;;
61527;SDS011;47395;42.032;-8.634;2023-05-29T07:58:03;21.95;;;16.48;;
61527;SDS011;47395;42.032;-8.634;2023-05-29T08:00:05;21.88;;;16.20;;
61527;SDS011;47395;42.032;-8.634;2023-05-29T08:02:08;19.70;;;15.48;;
61527;SDS011;47395;42.032;-8.634;2023-05-29T08:04:26;20.77;;;15.52;;
61527;SDS011;47395;42.032;-8.634;2023-05-29T08:06:27;22.60;;;15.05;;
61527;SDS011;47395;42.032;-8.634;2023-05-29T08:08:28;22.15;;;15.88;;
61527;SDS011;47395;42.032;-8.634;2023-05-29T08:10:29;22.33;;;15.73;;
61527;SDS011;47395;42.032;-8.634;2023-05-29T08:12:30;21.23;;;16.20;;
61527;SDS011;47395;42.032;-8.634;2023-05-29T08:14:33;20.27;;;14.93;;
61527;SDS011;47395;42.032;-8.634;2023-05-29T08:16:36;21.70;;;14.15;;
61527;SDS011;47395;42.032;-8.634;2023-05-29T08:18:37;19.45;;;15.18;;
61527;SDS011;47395;42.032;-8.634;2023-05-29T08:20:38;18.08;;;13.38;;
61527;SDS011;47395;42.032;-8.634;2023-05-29T08:22:39;17.80;;;13.25;;
61527;SDS011;47395;42.032;-8.634;2023-05-29T08:24:39;18.77;;;12.82;;
61527;SDS011;47395;42.032;-8.634;2023-05-29T08:26:40;18.50;;;13.52;;
61527;SDS011;47395;42.032;-8.634;2023-05-29T08:28:43;17.85;;;12.50;;
61527;SDS011;47395;42.032;-8.634;2023-05-29T08:30:44;16.30;;;12.93;;
61527;SDS011;47395;42.032;-8.634;2023-05-29T08:32:45;22.15;;;13.90;;
61527;SDS011;47395;42.032;-8.634;2023-05-29T08:34:47;20.40;;;13.85;;
61527;SDS011;47395;42.032;-8.634;2023-05-29T08:36:48;22.77;;;12.90;;
61527;SDS011;47395;42.032;-8.634;2023-05-29T08:38:51;19.65;;;12.35;;
61527;SDS011;47395;42.032;-8.634;2023-05-29T08:40:52;17.70;;;13.35;;
61527;SDS011;47395;42.032;-8.634;2023-05-29T08:42:57;20.23;;;13.68;;
61527;SDS011;47395;42.032;-8.634;2023-05-29T08:45:03;17.17;;;13.45;;
61527;SDS011;47395;42.032;-8.634;2023-05-29T08:47:07;18.65;;;12.45;;
61527;SDS011;47395;42.032;-8.634;2023-05-29T08:49:13;20.60;;;13.52;;
61527;SDS011;47395;42.032;-8.634;2023-05-29T08:51:22;18.13;;;12.88;;
61527;SDS011;47395;42.032;-8.634;2023-05-29T08:53:31;19.35;;;11.98;;
61527;SDS011;47395;42.032;-8.634;2023-05-29T08:55:33;16.50;;;13.68;;
61527;SDS011;47395;42.032;-8.634;2023-05-29T08:57:34;14.73;;;11.95;;
61527;SDS011;47395;42.032;-8.634;2023-05-29T08:59:36;18.05;;;12.52;;
61527;SDS011;47395;42.032;-8.634;2023-05-29T09:01:39;13.80;;;11.30;;
61527;SDS011;47395;42.032;-8.634;2023-05-29T09:03:40;16.65;;;12.30;;
61527;SDS011;47395;42.032;-8.634;2023-05-29T09:05:42;18.02;;;11.48;;
61527;SDS011;47395;42.032;-8.634;2023-05-29T09:07:43;14.85;;;11.25;;
61527;SDS011;47395;42.032;-8.634;2023-05-29T09:09:47;15.35;;;11.57;;
61527;SDS011;47395;42.032;-8.634;2023-05-29T09:11:48;15.52;;;11.60;;
61527;SDS011;47395;42.032;-8.634;2023-05-29T09:13:49;13.93;;;10.82;;
61527;SDS011;47395;42.032;-8.634;2023-05-29T09:15:56;17.77;;;11.35;;
61527;SDS011;47395;42.032;-8.634;2023-05-29T09:17:58;13.77;;;10.48;;
61527;SDS011;47395;42.032;-8.634;2023-05-29T09:19:59;15.60;;;11.20;;
61527;SDS011;47395;42.032;-8.634;2023-05-29T09:22:03;15.07;;;11.23;;
61527;SDS011;47395;42.032;-8.634;2023-05-29T09:24:08;17.38;;;11.77;;
61527;SDS011;47395;42.032;-8.634;2023-05-29T09:26:09;14.95;;;11.48;;
61527;SDS011;47395;42.032;-8.634;2023-05-29T09:28:17;13.55;;;11.32;;
61527;SDS011;47395;42.032;-8.634;2023-05-29T09:30:37;17.60;;;11.57;;
61527;SDS011;47395;42.032;-8.634;2023-05-29T09:32:42;13.18;;;11.20;;
61527;SDS011;47395;42.032;-8.634;2023-05-29T09:34:43;12.95;;;11.38;;
61527;SDS011;47395;42.032;-8.634;2023-05-29T09:36:44;14.27;;;11.55;;
61527;SDS011;47395;42.032;-8.634;2023-05-29T09:38:45;15.13;;;11.35;;
61527;SDS011;47395;42.032;-8.634;2023-05-29T09:40:46;13.73;;;12.18;;
61527;SDS011;47395;42.032;-8.634;2023-05-29T09:42:47;13.55;;;10.95;;
61527;SDS011;47395;42.032;-8.634;2023-05-29T09:44:48;14.43;;;12.52;;
61527;SDS011;47395;42.032;-8.634;2023-05-29T09:46:57;15.93;;;12.55;;
61527;SDS011;47395;42.032;-8.634;2023-05-29T09:49:00;18.52;;;10.02;;
61527;SDS011;47395;42.032;-8.634;2023-05-29T09:51:03;18.50;;;13.52;;
61527;SDS011;47395;42.032;-8.634;2023-05-29T09:53:05;16.33;;;11.65;;
61527;SDS011;47395;42.032;-8.634;2023-05-29T09:55:18;17.02;;;12.38;;
61527;SDS011;47395;42.032;-8.634;2023-05-29T09:57:21;16.55;;;11.23;;
61527;SDS011;47395;42.032;-8.634;2023-05-29T09:59:24;14.38;;;10.98;;
61527;SDS011;47395;42.032;-8.634;2023-05-29T10:01:25;14.90;;;11.73;;
61527;SDS011;47395;42.032;-8.634;2023-05-29T10:03:27;14.10;;;10.85;;
61527;SDS011;47395;42.032;-8.634;2023-05-29T10:05:29;13.73;;;10.57;;
61527;SDS011;47395;42.032;-8.634;2023-05-29T10:07:31;11.70;;;10.18;;
61527;SDS011;47395;42.032;-8.634;2023-05-29T10:09:36;15.10;;;10.57;;
61527;SDS011;47395;42.032;-8.634;2023-05-29T10:11:41;13.70;;;9.88;;
61527;SDS011;47395;42.032;-8.634;2023-05-29T10:13:44;9.90;;;8.98;;
61527;SDS011;47395;42.032;-8.634;2023-05-29T10:15:50;12.32;;;9.75;;
61527;SDS011;47395;42.032;-8.634;2023-05-29T10:17:59;10.18;;;9.27;;
61527;SDS011;47395;42.032;-8.634;2023-05-29T10:20:05;12.32;;;10.00;;
61527;SDS011;47395;42.032;-8.634;2023-05-29T10:22:09;9.30;;;8.30;;
61527;SDS011;47395;42.032;-8.634;2023-05-29T10:24:11;12.40;;;8.70;;
61527;SDS011;47395;42.032;-8.634;2023-05-29T10:26:19;10.25;;;8.65;;
61527;SDS011;47395;42.032;-8.634;2023-05-29T10:28:26;11.23;;;8.88;;
61527;SDS011;47395;42.032;-8.634;2023-05-29T10:30:34;10.68;;;8.60;;
61527;SDS011;47395;42.032;-8.634;2023-05-29T10:35:22;9.32;;;8.25;;
61527;SDS011;47395;42.032;-8.634;2023-05-29T10:38:09;9.93;;;8.20;;
61527;SDS011;47395;42.032;-8.634;2023-05-29T10:40:26;11.82;;;8.32;;
61527;SDS011;47395;42.032;-8.634;2023-05-29T10:42:43;9.65;;;8.75;;
61527;SDS011;47395;42.032;-8.634;2023-05-29T10:44:51;13.18;;;9.05;;
61527;SDS011;47395;42.032;-8.634;2023-05-29T10:47:02;8.82;;;8.00;;
61527;SDS011;47395;42.032;-8.634;2023-05-29T10:49:04;11.68;;;7.93;;
61527;SDS011;47395;42.032;-8.634;2023-05-29T10:51:27;9.60;;;8.70;;
61527;SDS011;47395;42.032;-8.634;2023-05-29T10:53:31;11.50;;;8.75;;
61527;SDS011;47395;42.032;-8.634;2023-05-29T10:55:35;10.13;;;8.95;;
61527;SDS011;47395;42.032;-8.634;2023-05-29T10:57:46;10.07;;;9.07;;
61527;SDS011;47395;42.032;-8.634;2023-05-29T10:59:57;13.00;;;9.85;;
61527;SDS011;47395;42.032;-8.634;2023-05-29T11:02:07;10.48;;;9.20;;
61527;SDS011;47395;42.032;-8.634;2023-05-29T11:06:37;15.80;;;8.82;;
61527;SDS011;47395;42.032;-8.634;2023-05-29T11:08:44;9.57;;;8.48;;
61527;SDS011;47395;42.032;-8.634;2023-05-29T11:12:56;11.63;;;9.40;;
61527;SDS011;47395;42.032;-8.634;2023-05-29T11:15:05;12.80;;;9.18;;
61527;SDS011;47395;42.032;-8.634;2023-05-29T11:17:07;11.45;;;8.15;;
61527;SDS011;47395;42.032;-8.634;2023-05-29T11:19:08;12.32;;;9.18;;
61527;SDS011;47395;42.032;-8.634;2023-05-29T11:21:21;10.95;;;9.35;;
61527;SDS011;47395;42.032;-8.634;2023-05-29T11:23:42;11.48;;;9.20;;
61527;SDS011;47395;42.032;-8.634;2023-05-29T11:25:47;10.32;;;9.15;;
61527;SDS011;47395;42.032;-8.634;2023-05-29T11:27:48;11.85;;;8.88;;
61527;SDS011;47395;42.032;-8.634;2023-05-29T11:29:49;10.65;;;9.38;;
61527;SDS011;47395;42.032;-8.634;2023-05-29T11:32:03;9.85;;;8.88;;
61527;SDS011;47395;42.032;-8.634;2023-05-29T11:34:06;12.07;;;9.05;;
61527;SDS011;47395;42.032;-8.634;2023-05-29T11:36:14;13.48;;;10.23;;
61527;SDS011;47395;42.032;-8.634;2023-05-29T11:38:16;13.00;;;9.50;;
61527;SDS011;47395;42.032;-8.634;2023-05-29T11:40:18;12.65;;;9.60;;
61527;SDS011;47395;42.032;-8.634;2023-05-29T11:42:19;9.93;;;8.93;;
61527;SDS011;47395;42.032;-8.634;2023-05-29T11:44:19;13.80;;;9.18;;
61527;SDS011;47395;42.032;-8.634;2023-05-29T11:46:21;11.43;;;10.00;;
61527;SDS011;47395;42.032;-8.634;2023-05-29T11:48:22;11.38;;;9.48;;
61527;SDS011;47395;42.032;-8.634;2023-05-29T11:50:24;12.55;;;9.32;;
61527;SDS011;47395;42.032;-8.634;2023-05-29T11:52:26;9.45;;;8.55;;
61527;SDS011;47395;42.032;-8.634;2023-05-29T11:54:27;10.05;;;8.90;;
61527;SDS011;47395;42.032;-8.634;2023-05-29T11:56:28;12.15;;;8.90;;
61527;SDS011;47395;42.032;-8.634;2023-05-29T11:58:30;10.85;;;9.30;;
61527;SDS011;47395;42.032;-8.634;2023-05-29T12:00:32;12.65;;;9.18;;
61527;SDS011;47395;42.032;-8.634;2023-05-29T12:02:35;12.07;;;8.85;;
61527;SDS011;47395;42.032;-8.634;2023-05-29T12:04:36;8.85;;;8.15;;
61527;SDS011;47395;42.032;-8.634;2023-05-29T12:06:37;12.05;;;9.77;;
61527;SDS011;47395;42.032;-8.634;2023-05-29T12:08:38;13.10;;;9.88;;
61527;SDS011;47395;42.032;-8.634;2023-05-29T12:10:49;13.85;;;9.85;;
61527;SDS011;47395;42.032;-8.634;2023-05-29T12:12:51;13.27;;;9.63;;
61527;SDS011;47395;42.032;-8.634;2023-05-29T12:14:53;13.20;;;10.85;;
61527;SDS011;47395;42.032;-8.634;2023-05-29T12:16:54;11.55;;;8.98;;
61527;SDS011;47395;42.032;-8.634;2023-05-29T12:18:55;10.07;;;9.10;;
61527;SDS011;47395;42.032;-8.634;2023-05-29T12:21:04;10.55;;;8.90;;
61527;SDS011;47395;42.032;-8.634;2023-05-29T12:23:06;10.23;;;9.25;;
61527;SDS011;47395;42.032;-8.634;2023-05-29T12:25:10;11.18;;;8.60;;
61527;SDS011;47395;42.032;-8.634;2023-05-29T12:27:12;10.15;;;8.90;;
61527;SDS011;47395;42.032;-8.634;2023-05-29T12:29:14;10.10;;;9.07;;
61527;SDS011;47395;42.032;-8.634;2023-05-29T12:31:26;10.65;;;8.85;;
61527;SDS011;47395;42.032;-8.634;2023-05-29T12:33:29;9.27;;;8.35;;
61527;SDS011;47395;42.032;-8.634;2023-05-29T12:35:31;10.40;;;8.77;;
61527;SDS011;47395;42.032;-8.634;2023-05-29T12:37:32;13.85;;;9.20;;
61527;SDS011;47395;42.032;-8.634;2023-05-29T12:39:33;12.43;;;9.05;;
61527;SDS011;47395;42.032;-8.634;2023-05-29T12:41:34;11.15;;;9.00;;
61527;SDS011;47395;42.032;-8.634;2023-05-29T12:43:36;14.38;;;9.40;;
61527;SDS011;47395;42.032;-8.634;2023-05-29T12:45:36;10.18;;;9.20;;
61527;SDS011;47395;42.032;-8.634;2023-05-29T12:47:37;10.93;;;9.70;;
61527;SDS011;47395;42.032;-8.634;2023-05-29T12:49:38;12.13;;;9.63;;